Terminal Aerodrome Forecast
Issued by NWS

Home | Current Version | Previous Version | Text Only | Print | Product List | Glossary On
Versions: 1 2 3 4 5 6 7 8 9 10 11 12 13 14 15 16 17 18 19 20 21 22 23 24 25 26 27
000
FTUS43 KGRB 221736
TAFATW
TAF
KATW 221736Z 2218/2318 25011G19KT P6SM BKN040
     FM222100 24005KT P6SM VCSH BKN045
     FM230300 VRB03KT P6SM SCT045 BKN090
     FM231200 04003KT P6SM OVC050
     FM231500 06005KT P6SM -SHRA SCT028 OVC035=

USA.gov is the U.S. government's official web portal to all federal, state and local government web resources and services.